< < Back
Terminal Aerodrome Forecast


Current Version              Previous Versions:   1  2  3  4  5  6  7  8  9  

Terminal Aerodrome Forecast

759
FTUS42 KCAE 230500
TAFCAE
TAF
KCAE 230520Z 2306/2406 35003KT P6SM SKC WS020/03040KT
     FM231700 30006KT P6SM SKC=

Latest METAR

978
SAUS80 KWBC 230600 CCA
MTRCAE
METAR KCAE 230556Z 00000KT 10SM CLR 11/04 A3009 RMK AO2 SLP189 T01060044
10167 20106 58002


USA.gov is the U.S. government's official web portal to all federal, state and local government web resources and services.